Time;durP1;ratioP1;P1;durP2;ratioP2;P2;SDS_P1;SDS_P2;PMS_P1;PMS_P2;Temp;Humidity;BMP_temperature;BMP_pressure;BME280_temperature;BME280_humidity;BME280_pressure;Samples;Min_cycle;Max_cycle;Signal;HPM_P1;HPM_P2
2023/06/11 00:00:58;;;;;;;;;28.75;27.75;;;;;26.10;41.59;100766.28;5021621;28;45412;-61
2023/06/11 00:03:24;;;;;;;;;29.75;28.25;;;;;26.08;41.61;100765.56;5039274;28;46223;-61
2023/06/11 00:05:51;;;;;;;;;31.50;29.75;;;;;26.06;41.79;100765.69;5039271;28;45335;-61
2023/06/11 00:08:17;;;;;;;;;30.75;29.75;;;;;26.05;41.82;100760.38;5039594;28;45297;-61
2023/06/11 00:10:43;;;;;;;;;31.75;26.50;;;;;26.04;42.41;100759.53;5040047;28;45229;-61
2023/06/11 00:13:08;;;;;;;;;29.25;26.25;;;;;26.04;42.46;100761.38;5042962;28;46195;-61
2023/06/11 00:15:34;;;;;;;;;30.25;28.25;;;;;26.00;41.75;100754.50;5042870;28;45256;-60
2023/06/11 00:18:01;;;;;;;;;32.50;31.00;;;;;25.99;41.54;100759.03;5042896;28;45296;-61
2023/06/11 00:20:27;;;;;;;;;29.00;26.25;;;;;26.01;41.75;100758.91;5042315;28;45440;-61
2023/06/11 00:22:53;;;;;;;;;28.75;24.75;;;;;25.97;42.26;100760.97;5042693;28;45957;-61
2023/06/11 00:25:18;;;;;;;;;27.50;25.25;;;;;26.00;42.07;100762.56;5042370;28;45287;-61
2023/06/11 00:27:44;;;;;;;;;32.75;29.75;;;;;25.96;42.32;100754.75;5042916;28;45383;-61
2023/06/11 00:30:10;;;;;;;;;24.50;24.50;;;;;25.98;42.16;100754.63;5041815;28;45238;-60
2023/06/11 00:32:35;;;;;;;;;34.50;29.00;;;;;25.98;42.61;100757.31;5041126;28;46353;-60
2023/06/11 00:35:06;;;;;;;;;27.50;26.75;;;;;25.98;42.23;100759.16;5041989;28;45308;-61
2023/06/11 00:37:32;;;;;;;;;30.75;28.50;;;;;25.96;42.51;100760.13;5041555;28;45446;-60
2023/06/11 00:39:58;;;;;;;;;30.75;29.50;;;;;25.94;42.13;100762.09;5041965;28;45305;-60
2023/06/11 00:42:23;;;;;;;;;31.75;28.25;;;;;25.93;42.25;100763.06;5034847;28;46148;-61
2023/06/11 00:44:48;;;;;;;;;29.25;28.50;;;;;25.94;42.19;100761.25;5062418;28;45311;-61
2023/06/11 00:47:15;;;;;;;;;28.50;26.75;;;;;25.91;42.83;100756.09;5062174;28;46334;-61
2023/06/11 00:49:41;;;;;;;;;28.25;26.75;;;;;25.90;42.51;100763.31;5062546;28;45331;-62
2023/06/11 00:52:12;;;;;;;;;29.50;27.25;;;;;25.93;42.39;100772.97;5044335;28;47267;-62
2023/06/11 00:54:37;;;;;;;;;30.25;28.25;;;;;25.91;42.45;100765.03;5062375;28;45257;-61
2023/06/11 00:57:03;;;;;;;;;29.50;28.00;;;;;25.89;42.34;100771.50;5062304;28;45385;-61
2023/06/11 00:59:28;;;;;;;;;28.50;28.00;;;;;25.88;43.01;100773.31;5062265;28;45344;-64
2023/06/11 01:02:09;;;;;;;;;33.00;30.00;;;;;25.86;42.30;100771.75;5023918;28;47165;-61
2023/06/11 01:04:39;;;;;;;;;30.00;26.25;;;;;25.84;42.41;100774.56;5028992;28;45375;-61
2023/06/11 01:07:07;;;;;;;;;30.50;27.50;;;;;25.83;42.94;100772.84;5042059;28;45300;-61
2023/06/11 01:09:33;;;;;;;;;29.25;29.25;;;;;25.84;42.55;100781.78;5024264;28;45591;-62
2023/06/11 01:11:59;;;;;;;;;28.50;26.75;;;;;25.83;42.46;100786.28;5041882;28;45456;-61
2023/06/11 01:14:25;;;;;;;;;36.25;31.25;;;;;25.80;42.63;100773.09;5042047;28;45473;-61
2023/06/11 01:17:02;;;;;;;;;29.75;29.50;;;;;25.79;42.98;100772.22;5042097;28;45211;-61
2023/06/11 01:19:34;;;;;;;;;31.25;30.00;;;;;25.78;42.54;100772.34;5041767;28;45313;-61
2023/06/11 01:22:05;;;;;;;;;26.00;25.00;;;;;25.78;42.28;100769.66;5041417;28;46183;-61
2023/06/11 01:24:53;;;;;;;;;28.25;26.50;;;;;25.77;42.31;100762.56;5041625;28;45375;-61
2023/06/11 01:27:53;;;;;;;;;33.00;30.50;;;;;25.76;43.06;100764.41;5042134;28;45275;-61
2023/06/11 01:30:20;;;;;;;;;26.00;22.25;;;;;25.75;42.95;100757.28;5010839;28;45580;-61
2023/06/11 01:32:52;;;;;;;;;34.25;28.50;;;;;25.73;42.95;100761.94;5041205;28;45486;-61
2023/06/11 01:35:18;;;;;;;;;28.50;27.00;;;;;25.74;42.83;100766.34;5041551;28;45352;-61
2023/06/11 01:37:45;;;;;;;;;26.25;24.50;;;;;25.74;42.69;100757.44;5041777;28;45333;-62
2023/06/11 01:40:14;;;;;;;;;38.00;30.75;;;;;25.74;42.73;100760.13;5041522;28;45290;-61
2023/06/11 01:42:40;;;;;;;;;33.00;28.50;;;;;25.74;43.12;100762.81;5023942;28;45334;-61
2023/06/11 01:45:06;;;;;;;;;24.75;23.00;;;;;25.74;43.00;100757.44;5041523;28;45304;-61
2023/06/11 01:47:32;;;;;;;;;32.75;30.50;;;;;25.73;42.71;100761.09;5041384;28;45352;-61
2023/06/11 01:49:57;;;;;;;;;31.50;29.50;;;;;25.75;42.95;100759.16;5041523;28;45259;-60
2023/06/11 01:52:24;;;;;;;;;32.25;29.25;;;;;25.72;43.11;100756.69;5041318;28;46242;-61
2023/06/11 01:54:50;;;;;;;;;35.75;31.75;;;;;25.71;42.90;100765.72;5041277;28;45490;-61
2023/06/11 01:57:15;;;;;;;;;31.50;29.75;;;;;25.73;42.83;100770.00;5023649;28;45293;-61
2023/06/11 01:59:41;;;;;;;;;31.25;30.00;;;;;25.72;43.40;100762.06;5023745;28;45611;-61
2023/06/11 02:02:06;;;;;;;;;32.00;30.00;;;;;25.72;43.30;100768.31;5023612;28;46410;-60
2023/06/11 02:04:31;;;;;;;;;33.25;30.75;;;;;25.71;42.77;100769.28;5023137;28;45424;-61
2023/06/11 02:06:57;;;;;;;;;32.25;29.75;;;;;25.72;43.35;100762.06;5041351;28;45339;-61
2023/06/11 02:09:22;;;;;;;;;29.00;27.00;;;;;25.70;42.70;100758.63;5041243;28;45226;-61
2023/06/11 02:11:47;;;;;;;;;29.25;28.00;;;;;25.71;43.36;100754.97;5041128;28;45242;-61
2023/06/11 02:14:13;;;;;;;;;31.00;30.00;;;;;25.70;43.28;100756.81;5041159;28;45198;-61
2023/06/11 02:16:38;;;;;;;;;25.00;23.25;;;;;25.68;43.28;100747.97;5041206;28;45471;-61
2023/06/11 02:19:03;;;;;;;;;29.50;28.75;;;;;25.69;43.54;100757.78;5040596;28;52720;-61
2023/06/11 02:21:29;;;;;;;;;29.25;28.00;;;;;25.69;43.62;100765.84;5023244;28;45269;-61
2023/06/11 02:23:54;;;;;;;;;28.00;26.50;;;;;25.67;42.88;100750.81;5041039;28;45305;-61
2023/06/11 02:26:19;;;;;;;;;32.25;29.25;;;;;25.61;43.04;100744.91;5023001;28;45513;-61
2023/06/11 02:28:45;;;;;;;;;34.25;31.75;;;;;25.66;43.50;100752.66;5040795;28;45523;-61
2023/06/11 02:31:10;;;;;;;;;35.50;31.00;;;;;25.66;43.55;100755.34;5040413;28;60059;-61
2023/06/11 02:33:35;;;;;;;;;29.50;28.75;;;;;25.66;43.85;100760.72;5039577;28;55148;-61
2023/06/11 02:36:01;;;;;;;;;29.25;28.25;;;;;25.62;43.31;100752.03;5022305;28;45271;-61
2023/06/11 02:38:26;;;;;;;;;30.50;29.25;;;;;25.60;43.70;100750.44;5040672;28;45354;-61
2023/06/11 02:40:51;;;;;;;;;30.75;28.75;;;;;25.56;43.85;100740.84;5040463;28;46098;-61
2023/06/11 02:43:16;;;;;;;;;33.75;28.75;;;;;25.58;43.91;100747.00;5040525;28;45308;-61
2023/06/11 02:45:42;;;;;;;;;33.75;31.25;;;;;25.53;43.66;100739.25;5040672;28;45470;-61
2023/06/11 02:48:07;;;;;;;;;30.75;29.50;;;;;25.53;43.90;100736.56;5040103;28;51113;-61
2023/06/11 02:50:32;;;;;;;;;28.25;26.00;;;;;25.54;43.44;100741.00;5040709;28;45359;-61
2023/06/11 02:52:58;;;;;;;;;33.50;30.25;;;;;25.53;43.65;100738.44;5039219;28;47292;-61
2023/06/11 02:55:23;;;;;;;;;32.75;30.50;;;;;25.50;43.65;100731.44;5040525;28;45388;-61
2023/06/11 02:57:48;;;;;;;;;32.50;29.75;;;;;25.43;44.06;100723.00;5040280;28;45527;-61
2023/06/11 03:00:14;;;;;;;;;30.25;28.50;;;;;25.47;43.86;100739.75;5040346;28;46522;-61
2023/06/11 03:02:39;;;;;;;;;33.25;30.00;;;;;25.42;43.99;100728.47;5039980;28;45433;-61
2023/06/11 03:05:05;;;;;;;;;31.50;30.00;;;;;25.42;43.66;100734.75;5040406;28;45308;-61
2023/06/11 03:07:30;;;;;;;;;30.00;28.25;;;;;25.43;43.60;100736.47;5040099;28;45262;-60
2023/06/11 03:09:56;;;;;;;;;35.75;31.00;;;;;25.39;43.62;100728.75;5040214;28;45293;-61
2023/06/11 03:12:21;;;;;;;;;33.50;30.75;;;;;25.41;44.18;100732.19;5040190;28;45330;-61
2023/06/11 03:14:46;;;;;;;;;32.25;29.25;;;;;25.39;43.83;100734.97;5040462;28;45267;-61
2023/06/11 03:17:12;;;;;;;;;34.50;31.50;;;;;25.38;44.18;100730.53;5039886;28;45522;-61
2023/06/11 03:19:37;;;;;;;;;32.25;31.00;;;;;25.37;44.19;100739.63;5038853;28;48525;-61
2023/06/11 03:22:02;;;;;;;;;26.75;25.75;;;;;25.35;44.18;100741.53;5039640;28;54914;-61
2023/06/11 03:24:28;;;;;;;;;32.50;28.25;;;;;25.35;43.95;100746.91;5040116;28;45274;-61
2023/06/11 03:26:53;;;;;;;;;32.75;30.25;;;;;25.35;44.27;100746.06;5039808;28;45259;-61
2023/06/11 03:29:18;;;;;;;;;35.25;31.25;;;;;25.32;44.56;100752.53;5022385;28;46966;-61
2023/06/11 03:31:44;;;;;;;;;33.50;31.00;;;;;25.30;44.63;100755.31;5039867;28;45265;-61
2023/06/11 03:34:10;;;;;;;;;37.75;33.25;;;;;25.28;44.19;100751.03;5039606;28;45451;-61
2023/06/11 03:36:36;;;;;;;;;35.25;30.50;;;;;25.29;44.36;100756.28;5039965;28;45263;-61
2023/06/11 03:39:01;;;;;;;;;27.50;27.50;;;;;25.26;44.47;100748.47;5039823;28;45448;-61
2023/06/11 03:41:27;;;;;;;;;30.75;29.50;;;;;25.25;44.33;100748.59;5039647;28;45412;-61
2023/06/11 03:43:52;;;;;;;;;29.75;25.50;;;;;25.25;44.48;100745.91;5040131;28;45262;-61
2023/06/11 03:46:19;;;;;;;;;29.25;27.75;;;;;25.20;44.95;100748.94;5039413;28;45332;-61
2023/06/11 03:48:45;;;;;;;;;31.00;30.00;;;;;25.25;44.55;100757.50;5039489;28;46124;-61
2023/06/11 03:51:10;;;;;;;;;39.25;32.75;;;;;25.24;44.39;100753.09;5021709;28;45372;-61
2023/06/11 03:53:35;;;;;;;;;32.50;30.25;;;;;25.22;44.58;100747.00;5040096;28;45280;-61
2023/06/11 03:56:01;;;;;;;;;30.50;29.25;;;;;25.23;44.69;100751.41;5021792;28;45447;-61
2023/06/11 03:58:26;;;;;;;;;37.75;32.25;;;;;25.20;44.42;100746.25;5038366;28;49303;-61
2023/06/11 04:00:51;;;;;;;;;32.00;30.50;;;;;25.21;44.50;100742.59;5021286;28;45853;-61
2023/06/11 04:03:17;;;;;;;;;27.50;26.50;;;;;25.23;44.69;100750.53;5021682;28;45436;-61
2023/06/11 04:05:42;;;;;;;;;30.25;29.25;;;;;25.21;44.86;100756.03;5021412;28;45538;-61
2023/06/11 04:08:08;;;;;;;;;34.50;31.75;;;;;25.18;44.55;100750.88;5021579;28;45913;-61
2023/06/11 04:10:33;;;;;;;;;37.25;32.00;;;;;25.18;44.68;100747.34;5039172;28;45318;-61
2023/06/11 04:12:59;;;;;;;;;33.75;29.75;;;;;25.16;44.89;100752.84;5021858;28;45273;-61
2023/06/11 04:15:24;;;;;;;;;33.50;30.50;;;;;25.15;44.81;100754.66;5039214;28;45313;-61
2023/06/11 04:17:49;;;;;;;;;32.00;30.00;;;;;25.14;44.89;100757.44;5039187;28;46869;-61
2023/06/11 04:20:15;;;;;;;;;32.25;30.00;;;;;25.11;45.20;100761.22;5039239;28;45373;-61
2023/06/11 04:22:40;;;;;;;;;34.00;31.25;;;;;25.09;44.66;100756.94;5039629;28;45284;-61
2023/06/11 04:25:06;;;;;;;;;32.75;29.50;;;;;25.08;45.38;100757.91;5039041;28;45243;-61
2023/06/11 04:27:33;;;;;;;;;31.25;29.00;;;;;25.07;45.12;100759.75;5039344;28;47280;-61
2023/06/11 04:30:03;;;;;;;;;33.50;31.25;;;;;24.98;45.26;100753.25;5039078;28;45348;-61
2023/06/11 04:32:34;;;;;;;;;33.00;31.25;;;;;25.01;45.70;100762.06;5038993;28;45242;-62
2023/06/11 04:35:01;;;;;;;;;33.00;31.75;;;;;24.93;45.59;100757.22;5038922;28;45328;-61
2023/06/11 04:37:29;;;;;;;;;30.25;29.75;;;;;24.95;45.62;100764.22;5039274;28;46171;-62
2023/06/11 04:39:56;;;;;;;;;32.50;29.00;;;;;24.90;46.00;100763.69;5020952;28;45798;-61
2023/06/11 04:42:24;;;;;;;;;32.00;30.25;;;;;24.87;45.77;100774.69;5039193;28;45290;-62
2023/06/11 04:44:50;;;;;;;;;32.75;29.75;;;;;24.82;45.67;100775.03;5020903;28;45501;-61
2023/06/11 04:47:22;;;;;;;;;32.25;30.50;;;;;24.78;46.00;100764.59;5038935;28;45297;-61
2023/06/11 04:49:52;;;;;;;;;32.00;30.50;;;;;24.75;46.12;100765.69;5021943;28;45338;-61
2023/06/11 04:52:18;;;;;;;;;34.25;32.25;;;;;24.72;45.69;100751.66;5021091;28;45404;-61
2023/06/11 04:54:44;;;;;;;;;29.50;26.75;;;;;24.66;46.03;100755.63;5038791;28;45459;-62
2023/06/11 04:57:10;;;;;;;;;31.50;29.25;;;;;24.67;46.03;100766.25;5021187;28;45515;-61
2023/06/11 04:59:35;;;;;;;;;34.75;26.50;;;;;24.69;45.84;100770.66;5024497;28;45921;-61
2023/06/11 05:02:01;;;;;;;;;33.50;30.25;;;;;24.66;46.17;100764.53;5042097;28;45607;-61
2023/06/11 05:04:27;;;;;;;;;27.75;27.00;;;;;24.65;46.47;100764.66;5041975;28;45515;-62
2023/06/11 05:06:54;;;;;;;;;31.75;28.25;;;;;24.66;46.46;100771.75;5024125;28;45974;-61
2023/06/11 05:09:20;;;;;;;;;32.25;28.25;;;;;24.65;46.13;100778.09;5042076;28;45402;-61
2023/06/11 05:11:45;;;;;;;;;28.00;25.25;;;;;24.64;46.07;100770.97;5042035;28;45336;-61
2023/06/11 05:14:11;;;;;;;;;30.50;28.75;;;;;24.63;46.69;100778.16;5024089;28;45518;-61
2023/06/11 05:16:37;;;;;;;;;30.00;26.50;;;;;24.62;46.77;100764.84;5041887;28;46200;-61
2023/06/11 05:19:03;;;;;;;;;27.00;24.75;;;;;24.64;46.38;100769.19;5041605;28;45321;-61
2023/06/11 05:21:28;;;;;;;;;28.50;26.00;;;;;24.58;46.58;100763.34;5042193;28;45163;-62
2023/06/11 05:23:54;;;;;;;;;25.25;24.50;;;;;24.65;46.34;100770.03;5041974;28;45295;-61
2023/06/11 05:26:31;;;;;;;;;22.75;22.25;;;;;24.65;46.55;100775.41;5041552;28;45894;-61
2023/06/11 05:28:57;;;;;;;;;26.00;25.75;;;;;24.65;46.42;100775.41;5041853;28;45382;-62
2023/06/11 05:31:23;;;;;;;;;27.50;26.25;;;;;24.66;46.69;100783.34;5041744;28;45420;-62
2023/06/11 05:33:49;;;;;;;;;27.25;24.75;;;;;24.69;46.74;100776.03;5041423;28;45632;-61
2023/06/11 05:36:15;;;;;;;;;26.75;24.75;;;;;24.69;46.60;100776.03;5041374;28;47170;-61
2023/06/11 05:38:40;;;;;;;;;26.50;24.25;;;;;24.72;46.80;100776.66;5041634;28;45349;-62
2023/06/11 05:41:06;;;;;;;;;22.25;20.50;;;;;24.73;46.72;100774.84;5041478;28;45307;-61
2023/06/11 05:43:31;;;;;;;;;25.00;21.75;;;;;24.74;46.80;100779.25;5041699;28;45301;-61
2023/06/11 05:45:56;;;;;;;;;20.50;20.00;;;;;24.75;46.63;100771.06;5041517;28;45341;-61
2023/06/11 05:48:23;;;;;;;;;24.00;21.50;;;;;24.76;46.82;100774.63;5041366;28;45510;-61
2023/06/11 05:50:48;;;;;;;;;21.00;20.75;;;;;24.79;46.95;100779.75;5023824;28;45278;-61
2023/06/11 05:53:14;;;;;;;;;21.50;19.00;;;;;24.80;46.40;100776.97;5041659;28;45282;-61
2023/06/11 05:55:39;;;;;;;;;22.50;21.00;;;;;24.82;46.89;100775.03;5040569;28;61703;-62
2023/06/11 05:58:05;;;;;;;;;20.50;19.50;;;;;24.87;46.68;100773.81;5041538;28;45255;-61
2023/06/11 06:00:30;;;;;;;;;23.00;21.50;;;;;24.89;46.70;100774.56;5041335;28;45416;-61
2023/06/11 06:02:56;;;;;;;;;20.75;20.50;;;;;24.88;46.45;100771.03;5027902;28;45221;-61
2023/06/11 06:05:22;;;;;;;;;20.00;19.00;;;;;24.89;46.54;100763.81;5041006;28;45441;-61
2023/06/11 06:07:47;;;;;;;;;19.00;17.00;;;;;24.92;46.81;100775.19;5041329;28;45327;-61
2023/06/11 06:10:13;;;;;;;;;14.75;14.75;;;;;24.92;47.02;100775.19;5023176;28;45318;-61
2023/06/11 06:12:39;;;;;;;;;17.50;15.25;;;;;24.92;46.80;100777.88;5041241;28;45327;-62
2023/06/11 06:15:04;;;;;;;;;18.75;16.25;;;;;24.95;46.60;100783.03;5022747;28;47073;-61
2023/06/11 06:17:30;;;;;;;;;18.75;18.75;;;;;24.96;46.85;100787.44;5040887;28;45810;-61
2023/06/11 06:19:55;;;;;;;;;20.25;20.25;;;;;24.96;46.85;100792.81;5039969;28;45692;-61
2023/06/11 06:22:20;;;;;;;;;25.25;25.25;;;;;24.95;46.62;100793.78;5041112;28;45249;-61
2023/06/11 06:24:46;;;;;;;;;23.75;23.50;;;;;24.97;46.80;100797.22;5039106;28;55729;-60
2023/06/11 06:27:11;;;;;;;;;26.00;23.00;;;;;24.97;47.02;100794.53;5040340;28;47338;-61
2023/06/11 06:29:38;;;;;;;;;26.75;23.50;;;;;25.02;46.75;100787.94;5041103;28;45241;-61
2023/06/11 06:32:05;;;;;;;;;24.25;23.25;;;;;25.02;47.05;100796.00;5040648;28;45591;-61
2023/06/11 06:34:30;;;;;;;;;22.25;21.50;;;;;25.03;46.84;100793.22;5021995;28;47156;-61
2023/06/11 06:36:56;;;;;;;;;22.00;20.75;;;;;25.03;47.38;100795.91;5019763;28;45651;-61
2023/06/11 06:39:21;;;;;;;;;19.25;19.25;;;;;25.04;46.86;100796.75;5022120;28;45389;-61
2023/06/11 06:41:47;;;;;;;;;21.50;20.75;;;;;25.08;47.36;100798.25;5040076;28;45391;-60
2023/06/11 06:44:12;;;;;;;;;29.75;29.00;;;;;25.08;47.32;100799.13;5040073;28;47490;-65
2023/06/11 06:46:38;;;;;;;;;24.50;24.00;;;;;25.04;47.33;100789.53;5040541;28;45419;-61
2023/06/11 06:49:03;;;;;;;;;26.75;24.50;;;;;25.08;47.49;100798.25;5040404;28;45368;-61
2023/06/11 06:51:29;;;;;;;;;24.50;22.25;;;;;25.07;47.53;100802.78;5040475;28;45501;-63
2023/06/11 06:53:55;;;;;;;;;24.75;23.25;;;;;25.08;47.24;100798.25;5040061;28;45391;-62
2023/06/11 06:56:21;;;;;;;;;22.50;21.50;;;;;25.11;47.38;100803.41;5022254;28;45314;-69
2023/06/11 06:58:47;;;;;;;;;24.50;21.25;;;;;25.10;47.87;100799.84;5040420;28;45447;-63
2023/06/11 07:01:12;;;;;;;;;24.00;22.50;;;;;25.12;47.40;100799.75;5039924;28;45320;-62
2023/06/11 07:03:38;;;;;;;;;31.00;27.75;;;;;25.13;47.31;100796.06;5039943;28;45284;-68
2023/06/11 07:06:03;;;;;;;;;27.00;25.50;;;;;25.14;47.93;100804.03;5040164;28;45249;-81
2023/06/11 07:08:28;;;;;;;;;27.50;25.25;;;;;25.14;48.05;100805.84;5022437;28;45333;-71
2023/06/11 07:10:55;;;;;;;;;28.25;25.25;;;;;25.17;47.81;100815.50;5039701;28;48328;-67
2023/06/11 07:13:21;;;;;;;;;28.75;26.25;;;;;25.15;47.55;100812.94;5039771;28;46452;-71
2023/06/11 07:15:47;;;;;;;;;27.75;24.25;;;;;25.23;47.92;100817.75;5039709;28;45388;-66
2023/06/11 07:18:13;;;;;;;;;28.00;23.00;;;;;25.26;47.88;100825.59;5039982;28;45316;-68
2023/06/11 07:20:38;;;;;;;;;23.00;22.25;;;;;25.29;47.59;100828.03;5039156;28;45413;-66
2023/06/11 07:23:04;;;;;;;;;22.25;21.25;;;;;25.32;48.11;100825.13;5040034;28;45981;-70
2023/06/11 07:25:30;;;;;;;;;27.25;24.50;;;;;25.35;48.12;100827.59;5039625;28;45418;-66
2023/06/11 07:28:01;;;;;;;;;24.50;23.25;;;;;25.39;47.82;100826.41;5040108;28;45320;-66
2023/06/11 07:30:27;;;;;;;;;18.25;16.50;;;;;25.44;47.79;100828.75;5039767;28;45310;-66
2023/06/11 07:32:56;;;;;;;;;23.00;20.75;;;;;25.48;48.28;100838.28;5035909;28;45391;-69
2023/06/11 07:35:22;;;;;;;;;21.00;21.00;;;;;25.49;47.86;100828.41;5040947;28;45350;-65
2023/06/11 07:37:48;;;;;;;;;22.75;21.75;;;;;25.51;48.12;100829.13;5039095;28;45647;-66
2023/06/11 07:40:15;;;;;;;;;24.75;21.75;;;;;25.56;47.72;100838.59;5039414;28;45600;-63
2023/06/11 07:42:41;;;;;;;;;19.25;16.00;;;;;25.57;47.83;100831.34;5030734;28;47466;-63
2023/06/11 07:45:07;;;;;;;;;18.50;18.50;;;;;25.61;48.39;100832.88;5041067;28;45356;-63
2023/06/11 07:47:32;;;;;;;;;22.25;19.00;;;;;25.65;48.14;100839.72;5018404;28;45468;-66
2023/06/11 07:49:58;;;;;;;;;22.75;21.00;;;;;25.72;48.23;100834.72;5039549;28;45593;-65
2023/06/11 07:52:23;;;;;;;;;19.75;19.00;;;;;25.72;48.09;100832.00;5039128;28;45526;-68
2023/06/11 07:54:48;;;;;;;;;23.00;22.00;;;;;25.73;48.11;100831.88;5039699;28;45373;-69
2023/06/11 07:57:14;;;;;;;;;23.50;20.50;;;;;25.78;47.94;100834.25;5041014;28;45553;-68
2023/06/11 07:59:42;;;;;;;;;25.25;23.00;;;;;25.81;47.84;100844.78;5038875;28;45503;-70
2023/06/11 08:02:08;;;;;;;;;20.25;19.75;;;;;25.83;47.94;100836.59;5038756;28;45480;-70
2023/06/11 08:04:33;;;;;;;;;25.25;24.00;;;;;25.85;47.90;100838.19;5021779;28;45259;-69
2023/06/11 08:06:59;;;;;;;;;20.25;19.50;;;;;25.87;48.38;100838.06;5040795;28;45175;-69
2023/06/11 08:09:24;;;;;;;;;20.25;19.75;;;;;25.90;47.89;100835.09;5011983;28;60691;-70
2023/06/11 08:11:50;;;;;;;;;19.00;17.00;;;;;25.92;47.78;100825.97;5038206;28;45549;-70
2023/06/11 08:14:18;;;;;;;;;25.00;21.50;;;;;25.95;47.63;100823.03;5039783;28;45293;-70
2023/06/11 08:16:45;;;;;;;;;16.75;16.75;;;;;25.99;48.29;100831.72;5028267;28;45553;-70
2023/06/11 08:19:11;;;;;;;;;20.50;20.50;;;;;26.02;47.68;100825.25;5040910;28;45256;-71
2023/06/11 08:21:36;;;;;;;;;19.50;19.50;;;;;26.07;47.67;100826.59;5038657;28;45366;-70
2023/06/11 08:24:02;;;;;;;;;18.50;17.25;;;;;26.08;47.55;100822.94;5038543;28;45415;-70
2023/06/11 08:26:27;;;;;;;;;19.50;18.25;;;;;26.14;47.97;100818.03;5021115;28;45322;-70
2023/06/11 08:28:53;;;;;;;;;18.75;17.00;;;;;26.14;48.10;100816.22;5021429;28;45588;-70
2023/06/11 08:31:18;;;;;;;;;21.75;19.00;;;;;26.19;47.85;100818.53;5041109;28;45214;-70
2023/06/11 08:33:44;;;;;;;;;17.50;15.50;;;;;26.21;47.99;100820.16;5040541;28;45241;-70
2023/06/11 08:36:09;;;;;;;;;16.50;16.50;;;;;26.25;47.84;100818.94;5042864;28;46064;-70
2023/06/11 08:38:35;;;;;;;;;17.50;17.50;;;;;26.30;47.94;100826.63;5042627;28;45454;-70
2023/06/11 08:41:00;;;;;;;;;16.75;15.00;;;;;26.32;47.95;100823.84;5041717;28;46325;-71
2023/06/11 08:43:26;;;;;;;;;16.00;14.75;;;;;26.34;47.36;100828.13;5044668;28;45175;-70
2023/06/11 08:45:51;;;;;;;;;13.75;13.75;;;;;26.36;47.95;100830.69;5042428;28;45411;-70
2023/06/11 08:48:22;;;;;;;;;18.50;17.75;;;;;26.37;47.31;100827.00;5033397;28;45563;-68
2023/06/11 08:50:52;;;;;;;;;19.75;19.00;;;;;26.38;47.60;100826.88;5062572;28;45325;-69
2023/06/11 08:53:18;;;;;;;;;19.50;18.00;;;;;26.37;48.05;100825.16;5062501;28;45358;-69
2023/06/11 08:55:45;;;;;;;;;17.50;16.75;;;;;26.41;48.07;100828.47;5062323;28;45291;-69
2023/06/11 08:58:12;;;;;;;;;23.50;20.75;;;;;26.44;47.75;100831.78;5062461;28;45473;-69
2023/06/11 09:00:38;;;;;;;;;18.50;17.75;;;;;26.48;48.01;100828.81;5036421;28;46091;-70
2023/06/11 09:03:04;;;;;;;;;18.00;18.00;;;;;26.51;47.85;100826.75;5042153;28;45430;-70
2023/06/11 09:05:33;;;;;;;;;28.75;26.00;;;;;26.53;47.99;100829.34;5023873;28;45178;-70
2023/06/11 09:07:58;;;;;;;;;19.75;18.75;;;;;26.56;47.77;100827.22;5042258;28;45444;-70
2023/06/11 09:10:23;;;;;;;;;24.00;23.00;;;;;26.58;47.87;100829.81;5040532;28;47330;-71
2023/06/11 09:12:49;;;;;;;;;22.75;22.25;;;;;26.65;47.71;100832.88;5041762;28;45538;-71
2023/06/11 09:15:15;;;;;;;;;26.50;24.00;;;;;26.65;47.59;100827.47;5023749;28;45369;-71
2023/06/11 09:17:42;;;;;;;;;22.00;21.50;;;;;26.69;47.81;100831.63;5041473;28;45315;-68
2023/06/11 09:20:11;;;;;;;;;29.00;26.50;;;;;26.73;47.91;100825.03;5023553;28;47711;-70
2023/06/11 09:22:37;;;;;;;;;29.25;27.50;;;;;26.77;47.90;100831.91;5041727;28;45425;-66
2023/06/11 09:25:16;;;;;;;;;34.00;29.75;;;;;26.80;47.24;100842.44;5041506;28;45345;-63
2023/06/11 09:27:45;;;;;;;;;33.50;31.00;;;;;26.82;47.60;100840.47;5041900;28;45234;-63
2023/06/11 09:30:19;;;;;;;;;36.25;31.25;;;;;26.84;47.20;100843.03;5023625;28;46718;-63
2023/06/11 09:32:46;;;;;;;;;35.25;30.00;;;;;26.80;47.44;100852.38;5041135;28;45371;-64
2023/06/11 09:35:13;;;;;;;;;29.00;29.00;;;;;26.81;47.63;100849.53;5041567;28;45431;-65
2023/06/11 09:37:40;;;;;;;;;27.75;25.75;;;;;26.79;47.49;100848.78;5041654;28;45389;-65
2023/06/11 09:40:11;;;;;;;;;32.75;29.25;;;;;26.82;47.67;100859.34;5023750;28;45878;-72
2023/06/11 09:42:37;;;;;;;;;29.00;26.25;;;;;26.84;47.14;100859.22;5041377;28;45250;-76
2023/06/11 09:45:02;;;;;;;;;29.50;27.75;;;;;26.83;47.78;100858.38;5040348;28;45357;-67
2023/06/11 09:47:30;;;;;;;;;30.75;29.75;;;;;26.84;47.42;100856.50;5040728;28;45719;-67
2023/06/11 09:49:58;;;;;;;;;30.00;29.75;;;;;26.84;47.57;100862.78;5041356;28;46104;-67
2023/06/11 09:52:26;;;;;;;;;60.00;47.00;;;;;26.86;47.19;100866.19;5041398;28;45353;-68
2023/06/11 09:54:52;;;;;;;;;50.25;43.25;;;;;26.86;47.34;100871.59;5023910;28;45318;-66
2023/06/11 09:57:17;;;;;;;;;34.00;30.25;;;;;26.85;47.59;100867.16;5041398;28;45692;-63
2023/06/11 09:59:44;;;;;;;;;91.50;85.25;;;;;26.88;47.40;100869.63;5023763;28;45392;-63
2023/06/11 10:02:10;;;;;;;;;30.00;28.50;;;;;26.89;46.97;100870.47;5022693;28;45669;-63
2023/06/11 10:04:35;;;;;;;;;29.25;27.50;;;;;26.90;47.32;100856.03;5041133;28;45320;-63
2023/06/11 10:07:01;;;;;;;;;28.75;28.00;;;;;26.93;47.13;100870.09;5040956;28;45585;-63
2023/06/11 10:09:30;;;;;;;;;32.25;31.25;;;;;26.96;46.67;100874.38;5041180;28;46242;-63
2023/06/11 10:11:56;;;;;;;;;35.25;31.75;;;;;26.97;47.45;100865.31;5040882;28;45375;-63
2023/06/11 10:14:22;;;;;;;;;30.25;29.00;;;;;26.94;47.36;100862.88;5041291;28;45151;-64
2023/06/11 10:16:51;;;;;;;;;34.25;31.75;;;;;26.99;47.58;100873.28;5040658;28;45555;-62
2023/06/11 10:19:17;;;;;;;;;32.50;29.50;;;;;26.99;46.66;100878.66;5040991;28;45328;-65
2023/06/11 10:21:49;;;;;;;;;34.50;30.50;;;;;27.00;47.21;100872.31;5040789;28;45308;-66
2023/06/11 10:24:28;;;;;;;;;28.25;24.25;;;;;27.02;47.21;100873.00;5040400;28;45380;-65
2023/06/11 10:27:13;;;;;;;;;26.50;24.75;;;;;26.99;46.84;100881.38;5040625;28;45237;-66
2023/06/11 10:29:41;;;;;;;;;32.50;30.25;;;;;27.02;47.23;100881.09;5040626;28;46282;-66
2023/06/11 10:32:20;;;;;;;;;29.75;29.00;;;;;27.04;46.72;100884.53;5039824;28;45404;-66
2023/06/11 10:35:07;;;;;;;;;29.25;29.00;;;;;27.05;46.67;100887.09;5040549;28;45394;-66
2023/06/11 10:37:37;;;;;;;;;29.25;26.50;;;;;27.08;46.79;100877.91;5039533;28;45518;-67
2023/06/11 10:40:05;;;;;;;;;27.50;26.50;;;;;27.09;46.66;100875.09;5022167;28;45508;-67
2023/06/11 10:42:36;;;;;;;;;31.75;29.25;;;;;27.12;46.85;100883.91;5040306;28;45541;-68
2023/06/11 10:45:07;;;;;;;;;27.00;26.00;;;;;27.22;47.00;100877.66;5040236;28;45420;-64
2023/06/11 10:47:49;;;;;;;;;34.00;29.25;;;;;27.30;46.75;100884.25;5023138;28;45447;-69
2023/06/11 10:50:23;;;;;;;;;29.25;27.25;;;;;27.40;46.73;100877.97;5037276;28;47235;-63
2023/06/11 10:52:56;;;;;;;;;29.00;26.00;;;;;27.48;47.34;100869.22;5039197;28;45448;-66
2023/06/11 10:55:26;;;;;;;;;31.00;29.50;;;;;27.66;47.22;100877.63;5023399;28;45313;-80
2023/06/11 10:57:52;;;;;;;;;33.75;30.25;;;;;27.80;46.93;100878.28;5021717;28;45320;-68
2023/06/11 11:00:18;;;;;;;;;25.25;25.25;;;;;27.96;46.68;100875.13;5040584;28;45245;-78
2023/06/11 11:02:45;;;;;;;;;32.75;28.50;;;;;28.13;46.63;100871.88;5039871;28;45400;-62
2023/06/11 11:05:10;;;;;;;;;31.00;27.50;;;;;28.31;47.01;100871.25;5040202;28;45222;-61
2023/06/11 11:07:36;;;;;;;;;25.25;24.50;;;;;28.48;46.61;100884.16;5022011;28;45634;-59